Time;durP1;ratioP1;P1;durP2;ratioP2;P2;SDS_P1;SDS_P2;PMS_P1;PMS_P2;Temp;Humidity;BMP_temperature;BMP_pressure;BME280_temperature;BME280_humidity;BME280_pressure;Samples;Min_cycle;Max_cycle;Signal;HPM_P1;HPM_P2
2023/07/16 00:02:11;;;;;;;;;;;;;;;20.11;100.00;99972.50;5034157;28;884;-58
2023/07/16 00:04:38;;;;;;;;;;;;;;;20.18;100.00;99969.41;5033516;28;1985;-58
2023/07/16 00:07:06;;;;;;;;;;;;;;;20.24;100.00;99968.78;5034231;28;859;-58
2023/07/16 00:09:32;;;;;;;;;;;;;;;20.29;100.00;99966.16;5034111;28;870;-58
2023/07/16 00:11:59;;;;;;;;;;;;;;;20.30;100.00;99962.09;5034069;28;869;-58
2023/07/16 00:14:24;;;;;;;;;;;;;;;20.25;100.00;99961.91;5034102;28;1039;-58
2023/07/16 00:16:50;;;;;;;;;;;;;;;20.12;100.00;99951.63;5034017;28;823;-59
2023/07/16 00:19:17;;;;;;;;;;;;;;;20.02;100.00;99952.06;5033975;28;818;-59
2023/07/16 00:21:43;;;;;;;;;;;;;;;19.93;100.00;99958.44;5034148;28;802;-58
2023/07/16 00:24:10;;;;;;;;;;;;;;;19.91;100.00;99956.09;5033816;28;1890;-59
2023/07/16 00:26:37;;;;;;;;;;;;;;;19.95;100.00;99958.72;5033696;28;886;-59
2023/07/16 00:29:04;;;;;;;;;;;;;;;20.02;100.00;99952.84;5033882;28;878;-58
2023/07/16 00:31:31;;;;;;;;;;;;;;;20.06;100.00;99945.06;5015922;28;1267;-58
2023/07/16 00:33:57;;;;;;;;;;;;;;;20.08;100.00;99953.78;5033653;28;886;-58
2023/07/16 00:36:24;;;;;;;;;;;;;;;20.04;100.00;99941.94;5033622;28;878;-59
2023/07/16 00:38:51;;;;;;;;;;;;;;;19.96;100.00;99943.47;5015775;28;915;-58
2023/07/16 00:41:19;;;;;;;;;;;;;;;19.84;100.00;99947.94;5033511;28;878;-59
2023/07/16 00:43:46;;;;;;;;;;;;;;;19.72;100.00;99943.25;5033479;28;1878;-58
2023/07/16 00:46:13;;;;;;;;;;;;;;;19.62;100.00;99939.59;5033782;28;1001;-58
2023/07/16 00:48:40;;;;;;;;;;;;;;;19.52;100.00;99941.59;5033206;28;1316;-58
2023/07/16 00:51:07;;;;;;;;;;;;;;;19.44;100.00;99945.13;5033352;28;822;-58
2023/07/16 00:53:34;;;;;;;;;;;;;;;19.32;100.00;99946.78;5033264;28;877;-58
2023/07/16 00:56:01;;;;;;;;;;;;;;;19.24;100.00;99945.50;5033231;28;782;-58
2023/07/16 00:58:28;;;;;;;;;;;;;;;19.21;100.00;99933.19;5033346;28;823;-58
2023/07/16 01:00:55;;;;;;;;;;;;;;;19.20;100.00;99939.25;5015339;28;1255;-58
2023/07/16 01:03:22;;;;;;;;;;;;;;;19.19;100.00;99932.88;5032955;28;1902;-60
2023/07/16 01:05:49;;;;;;;;;;;;;;;19.22;100.00;99934.75;5033040;28;807;-58
2023/07/16 01:08:20;;;;;;;;;;;;;;;19.27;100.00;99930.59;5032937;28;872;-59
2023/07/16 01:10:48;;;;;;;;;;;;;;;19.28;100.00;99927.31;5033144;28;834;-58
2023/07/16 01:13:14;;;;;;;;;;;;;;;19.29;100.00;99922.50;5033035;28;878;-58
2023/07/16 01:15:42;;;;;;;;;;;;;;;19.33;100.00;99921.13;5032747;28;819;-58
2023/07/16 01:18:10;;;;;;;;;;;;;;;19.32;100.00;99925.16;5032146;28;847;-58
2023/07/16 01:20:37;;;;;;;;;;;;;;;19.26;100.00;99918.56;5015009;28;1205;-58
2023/07/16 01:23:22;;;;;;;;;;;;;;;19.17;100.00;99915.75;5032616;28;1882;-58
2023/07/16 01:25:55;;;;;;;;;;;;;;;19.09;100.00;99920.06;5032550;28;913;-59
2023/07/16 01:28:54;;;;;;;;;;;;;;;19.08;100.00;99921.31;5032635;28;846;-58
2023/07/16 01:31:22;;;;;;;;;;;;;;;19.14;100.00;99919.47;4978586;28;1317;-59
2023/07/16 01:33:50;;;;;;;;;;;;;;;19.25;100.00;99919.06;5032550;28;818;-58
2023/07/16 01:36:18;;;;;;;;;;;;;;;19.30;100.00;99919.22;5032441;28;811;-59
2023/07/16 01:38:45;;;;;;;;;;;;;;;19.33;100.00;99915.53;5032413;28;804;-58
2023/07/16 01:41:12;;;;;;;;;;;;;;;19.33;100.00;99903.50;5032338;28;889;-58
2023/07/16 01:43:40;;;;;;;;;;;;;;;19.30;100.00;99916.41;5014581;28;1882;-59
2023/07/16 01:46:07;;;;;;;;;;;;;;;19.23;100.00;99913.91;5032431;28;1010;-58
2023/07/16 01:48:35;;;;;;;;;;;;;;;19.16;100.00;99922.56;5032054;28;1262;-59
2023/07/16 01:51:02;;;;;;;;;;;;;;;19.05;100.00;99917.38;5032225;28;959;-59
2023/07/16 01:53:29;;;;;;;;;;;;;;;18.97;100.00;99916.88;5032119;28;941;-58
2023/07/16 01:55:56;;;;;;;;;;;;;;;18.95;100.00;99913.75;5032223;28;858;-59
2023/07/16 01:58:23;;;;;;;;;;;;;;;19.04;100.00;99915.06;5032132;28;803;-58
2023/07/16 02:00:51;;;;;;;;;;;;;;;19.15;100.00;99921.78;5031934;28;842;-59
2023/07/16 02:03:18;;;;;;;;;;;;;;;19.21;100.00;99919.19;5032034;28;1906;-58
2023/07/16 02:05:45;;;;;;;;;;;;;;;19.18;100.00;99920.88;5032007;28;831;-58
2023/07/16 02:08:12;;;;;;;;;;;;;;;19.09;100.00;99920.06;5031957;28;876;-58
2023/07/16 02:10:39;;;;;;;;;;;;;;;18.93;100.00;99923.84;5031997;28;827;-58
2023/07/16 02:13:06;;;;;;;;;;;;;;;18.79;100.00;99924.38;5031900;28;857;-58
2023/07/16 02:15:33;;;;;;;;;;;;;;;18.65;100.00;99926.44;5031890;28;839;-58
2023/07/16 02:18:00;;;;;;;;;;;;;;;18.59;100.00;99930.28;5031843;28;905;-58
2023/07/16 02:20:27;;;;;;;;;;;;;;;18.53;100.00;99933.66;5031767;28;842;-58
2023/07/16 02:22:54;;;;;;;;;;;;;;;18.53;100.00;99921.69;5031890;28;846;-58
2023/07/16 02:25:21;;;;;;;;;;;;;;;18.54;100.00;99928.81;5031600;28;1957;-58
2023/07/16 02:27:48;;;;;;;;;;;;;;;18.53;100.00;99930.06;5015709;28;1451;-58
2023/07/16 02:30:15;;;;;;;;;;;;;;;18.50;100.00;99928.19;5038529;28;795;-58
2023/07/16 02:32:42;;;;;;;;;;;;;;;18.49;100.00;99926.63;5020767;28;1295;-58
2023/07/16 02:35:08;;;;;;;;;;;;;;;18.50;100.00;99933.78;5038477;28;877;-58
2023/07/16 02:37:36;;;;;;;;;;;;;;;18.53;100.00;99928.03;5038277;28;829;-58
2023/07/16 02:40:06;;;;;;;;;;;;;;;18.56;100.00;99929.16;5038269;28;901;-58
2023/07/16 02:42:33;;;;;;;;;;;;;;;18.54;100.00;99924.03;5038228;28;831;-58
2023/07/16 02:45:00;;;;;;;;;;;;;;;18.50;100.00;99917.78;5038152;28;1894;-58
2023/07/16 02:47:28;;;;;;;;;;;;;;;18.47;100.00;99923.50;5038275;28;1348;-58
2023/07/16 02:49:55;;;;;;;;;;;;;;;18.38;100.00;99920.63;5038351;28;942;-58
2023/07/16 02:52:23;;;;;;;;;;;;;;;18.31;100.00;99930.06;5038162;28;799;-58
2023/07/16 02:54:51;;;;;;;;;;;;;;;18.31;100.00;99927.25;5038198;28;840;-58
2023/07/16 02:57:19;;;;;;;;;;;;;;;18.29;100.00;99929.72;5038123;28;861;-58
2023/07/16 02:59:46;;;;;;;;;;;;;;;18.31;100.00;99928.03;5038117;28;795;-58
2023/07/16 03:02:13;;;;;;;;;;;;;;;18.36;100.00;99933.03;5037943;28;835;-58
2023/07/16 03:04:40;;;;;;;;;;;;;;;18.40;100.00;99938.50;5037944;28;1975;-58
2023/07/16 03:07:07;;;;;;;;;;;;;;;18.47;100.00;99937.47;5037960;28;890;-58
2023/07/16 03:09:34;;;;;;;;;;;;;;;18.57;100.00;99937.09;5037951;28;885;-58
2023/07/16 03:12:01;;;;;;;;;;;;;;;18.65;100.00;99942.44;5037951;28;858;-58
2023/07/16 03:14:27;;;;;;;;;;;;;;;18.71;100.00;99943.41;5038139;28;870;-58
2023/07/16 03:16:55;;;;;;;;;;;;;;;18.72;100.00;99942.19;5038042;28;883;-58
2023/07/16 03:19:21;;;;;;;;;;;;;;;18.71;100.00;99941.41;5037865;28;850;-58
2023/07/16 03:21:49;;;;;;;;;;;;;;;18.71;100.00;99940.63;5037942;28;874;-58
2023/07/16 03:24:16;;;;;;;;;;;;;;;18.76;100.00;99938.03;5037794;28;1953;-58
2023/07/16 03:26:43;;;;;;;;;;;;;;;18.84;100.00;99946.19;5037871;28;806;-58
2023/07/16 03:29:10;;;;;;;;;;;;;;;18.89;100.00;99946.38;5037733;28;842;-58
2023/07/16 03:31:37;;;;;;;;;;;;;;;18.92;100.00;99941.88;5037841;28;940;-58
2023/07/16 03:34:04;;;;;;;;;;;;;;;18.95;100.00;99938.19;5037759;28;815;-58
2023/07/16 03:36:29;;;;;;;;;;;;;;;19.00;100.00;99931.97;5037787;28;874;-58
2023/07/16 03:38:56;;;;;;;;;;;;;;;19.10;100.00;99944.81;5036884;28;856;-58
2023/07/16 03:41:23;;;;;;;;;;;;;;;19.22;100.00;99947.97;5034036;28;916;-58
2023/07/16 03:43:50;;;;;;;;;;;;;;;19.33;100.00;99948.34;5034665;28;1953;-58
2023/07/16 03:46:17;;;;;;;;;;;;;;;19.50;100.00;99951.69;5034681;28;901;-58
2023/07/16 03:48:45;;;;;;;;;;;;;;;19.67;100.00;99949.44;5034380;28;1324;-58
2023/07/16 03:51:12;;;;;;;;;;;;;;;19.79;100.00;99956.97;5034382;28;854;-58
2023/07/16 03:53:38;;;;;;;;;;;;;;;19.92;100.00;99951.25;5034450;28;990;-58
2023/07/16 03:56:05;;;;;;;;;;;;;;;20.03;100.00;99951.59;5034529;28;873;-58
2023/07/16 03:58:33;;;;;;;;;;;;;;;20.15;100.00;99956.28;5034243;28;807;-58
2023/07/16 04:01:00;;;;;;;;;;;;;;;20.27;100.00;99951.00;5034196;28;839;-58
2023/07/16 04:03:27;;;;;;;;;;;;;;;20.40;100.00;99958.03;5034219;28;1910;-58
2023/07/16 04:06:14;;;;;;;;;;;;;;;20.53;100.00;99965.53;5034061;28;909;-58
2023/07/16 04:08:41;;;;;;;;;;;;;;;20.75;100.00;99959.78;5034194;28;839;-58
2023/07/16 04:11:08;;;;;;;;;;;;;;;20.90;100.00;99960.72;5034080;28;850;-58
2023/07/16 04:13:35;;;;;;;;;;;;;;;21.03;100.00;99954.13;5034034;28;862;-58
2023/07/16 04:16:02;;;;;;;;;;;;;;;21.17;100.00;99957.06;5033956;28;835;-58
2023/07/16 04:18:29;;;;;;;;;;;;;;;21.29;100.00;99954.53;5016260;28;1411;-58
2023/07/16 04:20:57;;;;;;;;;;;;;;;21.36;100.00;99960.63;5033980;28;799;-58
2023/07/16 04:23:24;;;;;;;;;;;;;;;21.46;100.00;99966.22;5033805;28;1885;-58
2023/07/16 04:25:53;;;;;;;;;;;;;;;21.58;100.00;99965.25;5033848;28;798;-58
2023/07/16 04:28:20;;;;;;;;;;;;;;;21.72;100.00;99964.56;5033695;28;814;-58
2023/07/16 04:30:48;;;;;;;;;;;;;;;21.90;100.00;99974.19;5034144;28;901;-58
2023/07/16 04:33:15;;;;;;;;;;;;;;;22.01;100.00;99968.78;5033648;28;838;-58
2023/07/16 04:35:42;;;;;;;;;;;;;;;22.11;100.00;99981.56;5033720;28;901;-58
2023/07/16 04:38:08;;;;;;;;;;;;;;;22.22;100.00;99970.56;5033635;28;889;-58
2023/07/16 04:40:43;;;;;;;;;;;;;;;22.34;100.00;99965.97;5033592;28;810;-57
2023/07/16 04:43:10;;;;;;;;;;;;;;;22.46;100.00;99978.22;5033557;28;1945;-58
2023/07/16 04:45:37;;;;;;;;;;;;;;;22.59;100.00;99966.69;5033436;28;943;-57
2023/07/16 04:48:04;;;;;;;;;;;;;;;22.78;100.00;99968.09;5033282;28;1243;-58
2023/07/16 04:50:30;;;;;;;;;;;;;;;23.00;100.00;99964.13;5033197;28;878;-57
2023/07/16 04:52:57;;;;;;;;;;;;;;;23.22;100.00;99973.03;5033349;28;897;-58
2023/07/16 04:55:24;;;;;;;;;;;;;;;23.39;100.00;99976.13;5015719;28;1324;-57
2023/07/16 04:57:53;;;;;;;;;;;;;;;23.53;100.00;99970.97;5033194;28;885;-57
2023/07/16 05:00:20;;;;;;;;;;;;;;;23.64;100.00;99977.56;5033247;28;852;-57
2023/07/16 05:02:47;;;;;;;;;;;;;;;23.78;100.00;99969.59;5033169;28;847;-57
2023/07/16 05:05:14;;;;;;;;;;;;;;;23.90;100.00;99979.78;5033194;28;1973;-57
2023/07/16 05:07:41;;;;;;;;;;;;;;;24.02;100.00;99989.94;5033031;28;877;-57
2023/07/16 05:10:08;;;;;;;;;;;;;;;24.21;100.00;99992.53;5032488;28;846;-57
2023/07/16 05:12:35;;;;;;;;;;;;;;;24.39;100.00;99989.44;5032917;28;827;-57
2023/07/16 05:15:02;;;;;;;;;;;;;;;24.55;100.00;99987.34;5032971;28;819;-57
2023/07/16 05:17:29;;;;;;;;;;;;;;;24.81;100.00;99990.97;5032772;28;846;-57
2023/07/16 05:19:56;;;;;;;;;;;;;;;25.02;100.00;99997.34;5033122;28;866;-57
2023/07/16 05:22:23;;;;;;;;;;;;;;;25.31;100.00;99992.78;5014997;28;1196;-57
2023/07/16 05:24:50;;;;;;;;;;;;;;;25.55;100.00;99991.72;5032978;28;1898;-57
2023/07/16 05:27:17;;;;;;;;;;;;;;;25.66;100.00;99994.63;5032613;28;823;-57
2023/07/16 05:29:44;;;;;;;;;;;;;;;25.67;100.00;99999.00;5032706;28;815;-56
2023/07/16 05:32:10;;;;;;;;;;;;;;;25.69;100.00;99999.28;5032757;28;815;-57
2023/07/16 05:34:36;;;;;;;;;;;;;;;25.81;100.00;99998.06;5032808;28;953;-57
2023/07/16 05:37:03;;;;;;;;;;;;;;;26.01;100.00;99999.25;5032520;28;889;-57
2023/07/16 05:39:30;;;;;;;;;;;;;;;26.28;100.00;100000.69;5032431;28;876;-57
2023/07/16 05:41:57;;;;;;;;;;;;;;;26.65;100.00;99999.84;5032510;28;842;-57
2023/07/16 05:44:23;;;;;;;;;;;;;;;27.05;100.00;99997.91;5032288;28;1897;-57
2023/07/16 05:46:49;;;;;;;;;;;;;;;27.26;100.00;100001.31;5029487;28;1357;-57
2023/07/16 05:49:15;;;;;;;;;;;;;;;27.35;100.00;100009.56;5012843;28;792;-57
2023/07/16 05:51:42;;;;;;;;;;;;;;;27.40;100.00;100002.38;5012751;28;905;-57
2023/07/16 05:54:09;;;;;;;;;;;;;;;27.60;100.00;100007.00;5012622;28;848;-57
2023/07/16 05:56:36;;;;;;;;;;;;;;;27.76;100.00;100006.22;5012577;28;1186;-57
2023/07/16 05:59:03;;;;;;;;;;;;;;;27.93;100.00;99999.75;5012593;28;823;-57
2023/07/16 06:01:31;;;;;;;;;;;;;;;28.09;94.89;99999.72;4994822;28;836;-57
2023/07/16 06:03:58;;;;;;;;;;;;;;;28.36;94.00;99996.53;5012008;28;1918;-57
2023/07/16 06:06:24;;;;;;;;;;;;;;;28.86;91.67;100001.28;5012560;28;886;-57
2023/07/16 06:08:49;;;;;;;;;;;;;;;29.37;88.45;100001.72;5012735;28;1261;-57
2023/07/16 06:11:16;;;;;;;;;;;;;;;29.71;82.85;100001.47;5012265;28;815;-57
2023/07/16 06:13:42;;;;;;;;;;;;;;;29.87;81.64;100003.41;4994671;28;846;-57
2023/07/16 06:16:09;;;;;;;;;;;;;;;30.44;78.92;100014.22;5012218;28;863;-57
2023/07/16 06:18:35;;;;;;;;;;;;;;;30.29;79.07;100014.63;5012245;28;831;-57
2023/07/16 06:21:02;;;;;;;;;;;;;;;30.55;79.09;100008.34;5012108;28;835;-57
2023/07/16 06:23:28;;;;;;;;;;;;;;;30.91;76.38;100008.16;5012205;28;1955;-57
2023/07/16 06:25:58;;;;;;;;;;;;;;;31.44;74.86;100011.28;5011999;28;1051;-57
2023/07/16 06:28:25;;;;;;;;;;;;;;;31.47;73.82;100012.28;5012352;28;827;-56
2023/07/16 06:30:52;;;;;;;;;;;;;;;30.59;76.57;100017.38;5011959;28;811;-57
2023/07/16 06:33:19;;;;;;;;;;;;;;;30.50;77.13;100007.13;4994335;28;946;-57
2023/07/16 06:35:47;;;;;;;;;;;;;;;31.43;73.97;100009.75;4994323;28;1307;-56
2023/07/16 06:38:14;;;;;;;;;;;;;;;32.59;69.76;100005.84;5011971;28;1212;-57
2023/07/16 06:40:50;;;;;;;;;;;;;;;33.12;62.46;100000.75;5012073;28;1182;-56
2023/07/16 06:43:17;;;;;;;;;;;;;;;33.43;58.56;100009.66;4994318;28;1918;-55
2023/07/16 06:45:44;;;;;;;;;;;;;;;33.86;56.72;100001.81;5012032;28;998;-56
2023/07/16 06:48:11;;;;;;;;;;;;;;;35.02;53.15;100009.72;5024879;28;1205;-56
2023/07/16 06:50:38;;;;;;;;;;;;;;;35.66;49.19;100007.94;5031768;28;818;-57
2023/07/16 06:53:04;;;;;;;;;;;;;;;36.75;45.02;100003.53;5031669;28;838;-57
2023/07/16 06:55:31;;;;;;;;;;;;;;;37.49;40.47;100001.34;5031500;28;889;-57
2023/07/16 06:57:58;;;;;;;;;;;;;;;37.33;38.96;100009.34;5031551;28;858;-56
2023/07/16 07:00:25;;;;;;;;;;;;;;;37.25;38.74;100002.88;5031580;28;807;-56
2023/07/16 07:02:52;;;;;;;;;;;;;;;37.54;37.84;100006.88;5031283;28;959;-57
2023/07/16 07:05:18;;;;;;;;;;;;;;;37.67;37.39;100002.97;5031468;28;1965;-56
2023/07/16 07:07:45;;;;;;;;;;;;;;;38.07;37.45;100004.16;5031346;28;969;-57
2023/07/16 07:10:12;;;;;;;;;;;;;;;38.11;37.14;100002.38;5031417;28;839;-56
2023/07/16 07:12:39;;;;;;;;;;;;;;;38.18;36.79;100001.53;5013671;28;1369;-57
2023/07/16 07:15:09;;;;;;;;;;;;;;;38.44;36.11;100004.34;5032240;28;914;-57
2023/07/16 07:17:36;;;;;;;;;;;;;;;38.91;35.37;100003.16;5035357;28;827;-57
2023/07/16 07:20:03;;;;;;;;;;;;;;;39.15;34.08;100000.72;5035065;28;826;-57
2023/07/16 07:22:28;;;;;;;;;;;;;;;39.56;33.29;100001.84;5035018;28;869;-57
2023/07/16 07:24:55;;;;;;;;;;;;;;;39.79;32.69;100000.69;5034895;28;1890;-57
2023/07/16 07:27:22;;;;;;;;;;;;;;;39.78;32.79;99997.03;5035010;28;886;-57
2023/07/16 07:29:51;;;;;;;;;;;;;;;39.88;32.80;99999.19;5034673;28;853;-58
2023/07/16 07:32:19;;;;;;;;;;;;;;;39.65;33.00;99997.47;5034925;28;843;-57
2023/07/16 07:34:45;;;;;;;;;;;;;;;39.66;33.06;100001.09;5034511;28;901;-58
2023/07/16 07:37:13;;;;;;;;;;;;;;;39.74;32.89;99993.06;5034816;28;850;-58
2023/07/16 07:39:39;;;;;;;;;;;;;;;39.37;30.75;99996.72;5034553;28;862;-58
2023/07/16 07:42:07;;;;;;;;;;;;;;;38.90;31.13;99997.97;5034729;28;854;-58
2023/07/16 07:44:34;;;;;;;;;;;;;;;38.98;30.96;100002.31;5034363;28;1932;-57
2023/07/16 07:47:00;;;;;;;;;;;;;;;38.65;30.55;99998.91;5034624;28;1204;-57
2023/07/16 07:49:27;;;;;;;;;;;;;;;38.53;31.08;99998.66;5034795;28;863;-57
2023/07/16 07:51:55;;;;;;;;;;;;;;;38.64;30.79;99993.72;5034471;28;927;-57
2023/07/16 07:54:22;;;;;;;;;;;;;;;38.55;31.22;99995.16;5034258;28;886;-55
2023/07/16 07:56:48;;;;;;;;;;;;;;;38.54;31.20;100003.06;5034428;28;890;-57
2023/07/16 07:59:15;;;;;;;;;;;;;;;38.43;30.21;100005.69;5034711;28;851;-57
2023/07/16 08:01:42;;;;;;;;;;;;;;;38.18;30.12;100006.53;5034308;28;854;-57
2023/07/16 08:04:09;;;;;;;;;;;;;;;38.54;29.58;99993.66;5034216;28;1967;-57
2023/07/16 08:06:36;;;;;;;;;;;;;;;39.05;29.25;100003.59;5034156;28;1050;-57
2023/07/16 08:09:02;;;;;;;;;;;;;;;38.88;29.94;99992.03;5034383;28;807;-57
2023/07/16 08:11:28;;;;;;;;;;;;;;;38.86;30.19;99988.97;5033930;28;814;-57
2023/07/16 08:13:55;;;;;;;;;;;;;;;38.81;29.67;99993.66;5034143;28;941;-57
2023/07/16 08:16:21;;;;;;;;;;;;;;;38.69;29.04;99990.56;5033904;28;906;-56
2023/07/16 08:18:47;;;;;;;;;;;;;;;39.14;28.96;99990.53;5034145;28;830;-57
2023/07/16 08:21:19;;;;;;;;;;;;;;;39.24;28.16;99985.56;5034044;28;855;-56
2023/07/16 08:23:52;;;;;;;;;;;;;;;39.16;28.66;99987.81;5033819;28;1958;-57
2023/07/16 08:26:19;;;;;;;;;;;;;;;39.18;28.02;99991.63;5033315;28;889;-54
2023/07/16 08:28:46;;;;;;;;;;;;;;;38.77;28.07;99988.34;5033876;28;855;-57
2023/07/16 08:31:13;;;;;;;;;;;;;;;38.60;27.53;99985.47;5033810;28;822;-56
2023/07/16 08:33:39;;;;;;;;;;;;;;;38.88;27.38;99992.81;5033711;28;882;-57
2023/07/16 08:36:06;;;;;;;;;;;;;;;38.81;27.09;99993.66;5033742;28;889;-57
2023/07/16 08:38:33;;;;;;;;;;;;;;;38.64;27.29;99987.94;5033662;28;855;-57
2023/07/16 08:41:02;;;;;;;;;;;;;;;38.60;27.18;99991.25;5033617;28;818;-57
2023/07/16 08:43:29;;;;;;;;;;;;;;;38.57;27.07;99983.78;5033363;28;1882;-57
2023/07/16 08:45:56;;;;;;;;;;;;;;;38.66;26.99;99982.31;5033524;28;1023;-56
2023/07/16 08:48:22;;;;;;;;;;;;;;;38.71;26.89;99984.97;5033142;28;1261;-57
2023/07/16 08:50:49;;;;;;;;;;;;;;;38.14;27.56;99980.22;5033375;28;939;-56
2023/07/16 08:53:17;;;;;;;;;;;;;;;37.76;28.01;99993.66;5033185;28;819;-55
2023/07/16 08:55:45;;;;;;;;;;;;;;;37.90;28.22;99985.44;5033320;28;866;-56
2023/07/16 08:58:14;;;;;;;;;;;;;;;37.93;28.39;99974.84;5033243;28;814;-56
2023/07/16 09:00:42;;;;;;;;;;;;;;;37.71;29.12;99979.50;5033330;28;1241;-56
2023/07/16 09:03:16;;;;;;;;;;;;;;;37.82;28.70;99981.88;5033368;28;847;-56
2023/07/16 09:05:44;;;;;;;;;;;;;;;37.96;27.69;99980.19;5033063;28;1976;-56
2023/07/16 09:08:13;;;;;;;;;;;;;;;37.79;28.15;99980.19;5015480;28;823;-56
2023/07/16 09:10:41;;;;;;;;;;;;;;;37.49;27.91;99972.53;5032922;28;855;-56
2023/07/16 09:13:09;;;;;;;;;;;;;;;37.48;27.98;99985.41;5032959;28;819;-56
2023/07/16 09:46:36;;;;;;;;;;;;;;;36.36;28.60;99962.59;5864539;22;1734;-68
2023/07/16 09:49:03;;;;;;;;;;;;;;;36.27;28.76;99955.31;5012826;28;865;-69
2023/07/16 09:51:30;;;;;;;;;;;;;;;36.43;28.40;99956.06;5012951;28;845;-68
2023/07/16 09:53:57;;;;;;;;;;;;;;;36.53;27.68;99951.22;5012960;28;1169;-68
2023/07/16 09:56:27;;;;;;;;;;;;;;;36.56;26.70;99947.16;5012814;28;950;-68
2023/07/16 09:58:53;;;;;;;;;;;;;;;36.20;26.70;99952.50;5012764;28;866;-72
2023/07/16 10:01:20;;;;;;;;;;;;;;;35.79;26.60;99946.63;4994897;28;1292;-70
2023/07/16 10:03:53;;;;;;;;;;;;;;;35.74;26.96;99951.22;5012445;28;1914;-70
2023/07/16 10:06:20;;;;;;;;;;;;;;;35.88;26.58;99943.13;5012546;28;933;-69
2023/07/16 10:08:50;;;;;;;;;;;;;;;36.04;26.21;99938.13;5012485;28;905;-70
2023/07/16 10:11:16;;;;;;;;;;;;;;;36.03;26.34;99941.59;5012804;28;921;-70
2023/07/16 10:13:43;;;;;;;;;;;;;;;36.09;26.60;99934.28;5013352;28;885;-73
2023/07/16 10:16:19;;;;;;;;;;;;;;;36.14;26.11;99941.19;5013044;28;865;-73
2023/07/16 10:18:54;;;;;;;;;;;;;;;36.03;25.95;99935.81;4995593;28;1188;-71
2023/07/16 10:21:25;;;;;;;;;;;;;;;36.07;26.29;99939.06;5013614;28;902;-70
2023/07/16 10:23:59;;;;;;;;;;;;;;;35.72;25.83;99936.66;4995433;28;1902;-75
2023/07/16 10:26:29;;;;;;;;;;;;;;;35.73;25.97;99931.69;5013316;28;877;-71
2023/07/16 10:28:56;;;;;;;;;;;;;;;35.65;26.69;99928.03;5013052;28;921;-73
2023/07/16 10:31:26;;;;;;;;;;;;;;;35.61;26.77;99930.50;5012785;28;918;-73
2023/07/16 10:34:00;;;;;;;;;;;;;;;35.60;26.17;99932.63;5013189;28;803;-76
2023/07/16 10:36:27;;;;;;;;;;;;;;;35.52;26.15;99924.00;5013386;28;810;-73
2023/07/16 10:38:54;;;;;;;;;;;;;;;35.77;26.40;99924.19;5013394;28;866;-73
2023/07/16 10:41:21;;;;;;;;;;;;;;;36.06;25.85;99923.16;5012964;28;874;-76
2023/07/16 10:43:48;;;;;;;;;;;;;;;36.18;25.17;99918.53;5013043;28;1889;-74
2023/07/16 10:46:15;;;;;;;;;;;;;;;36.12;25.59;99926.59;5013299;28;940;-74
2023/07/16 10:48:46;;;;;;;;;;;;;;;36.04;25.06;99914.34;4979349;28;1295;-72
2023/07/16 10:51:14;;;;;;;;;;;;;;;36.14;25.06;99918.94;4977865;28;791;-73
2023/07/16 10:53:44;;;;;;;;;;;;;;;36.58;25.54;99918.56;4977861;28;863;-74
2023/07/16 10:56:10;;;;;;;;;;;;;;;36.75;25.21;99923.66;4960399;28;1257;-73
2023/07/16 10:58:38;;;;;;;;;;;;;;;36.78;25.20;99919.59;4977984;28;850;-76
2023/07/16 11:01:04;;;;;;;;;;;;;;;36.96;24.13;99925.47;4977280;28;831;-71
2023/07/16 11:03:31;;;;;;;;;;;;;;;36.90;23.71;99917.06;4977576;28;1910;-72
2023/07/16 11:05:58;;;;;;;;;;;;;;;36.94;24.05;99910.91;4977631;28;878;-73
2023/07/16 11:08:26;;;;;;;;;;;;;;;36.79;24.04;99918.28;4977219;28;930;-73
2023/07/16 11:10:56;;;;;;;;;;;;;;;36.51;23.97;99910.75;4977544;28;899;-69
2023/07/16 11:13:33;;;;;;;;;;;;;;;36.32;25.13;99908.31;4977698;28;843;-70
2023/07/16 11:16:08;;;;;;;;;;;;;;;36.48;25.18;99914.00;4977168;28;839;-71
2023/07/16 11:18:35;;;;;;;;;;;;;;;36.58;24.76;99920.69;4976780;28;823;-73
2023/07/16 11:21:02;;;;;;;;;;;;;;;36.63;24.22;99908.19;4976764;28;965;-73
2023/07/16 11:23:33;;;;;;;;;;;;;;;36.88;24.64;99919.00;4977332;28;1875;-74
2023/07/16 11:26:01;;;;;;;;;;;;;;;36.88;24.39;99919.00;4977340;28;862;-73
2023/07/16 11:28:49;;;;;;;;;;;;;;;36.94;24.84;99916.66;4976908;28;812;-73
2023/07/16 11:31:16;;;;;;;;;;;;;;;36.93;24.68;99913.00;4959813;28;1396;-73
2023/07/16 11:33:45;;;;;;;;;;;;;;;37.11;24.71;99907.34;4976998;28;941;-71
2023/07/16 11:36:13;;;;;;;;;;;;;;;36.97;24.58;99913.34;4976801;28;848;-73
2023/07/16 11:38:40;;;;;;;;;;;;;;;37.25;25.03;99899.16;4976773;28;886;-69
2023/07/16 11:53:43;;;;;;;;;;;;;;;38.43;24.02;99899.66;5012287;28;1322;-72
2023/07/16 11:56:10;;;;;;;;;;;;;;;38.26;23.78;99899.66;5015347;28;834;-72
2023/07/16 11:58:37;;;;;;;;;;;;;;;38.49;24.06;99900.16;5015499;28;862;-74
2023/07/16 12:01:04;;;;;;;;;;;;;;;39.13;23.57;99897.28;5014635;28;881;-69
2023/07/16 12:03:31;;;;;;;;;;;;;;;39.63;23.14;99895.34;5015041;28;1973;-73
2023/07/16 12:05:57;;;;;;;;;;;;;;;39.42;23.50;99905.31;5015432;28;815;-72
2023/07/16 12:08:24;;;;;;;;;;;;;;;39.40;23.80;99891.47;5015241;28;850;-73
2023/07/16 12:10:51;;;;;;;;;;;;;;;39.38;23.51;99904.97;5015178;28;862;-74
2023/07/16 12:13:18;;;;;;;;;;;;;;;38.98;23.82;99903.31;5014927;28;831;-72
2023/07/16 12:15:45;;;;;;;;;;;;;;;39.12;23.58;99895.03;5014857;28;799;-73
2023/07/16 12:18:12;;;;;;;;;;;;;;;39.48;23.70;99905.81;5014797;28;823;-73
2023/07/16 12:20:39;;;;;;;;;;;;;;;39.51;23.67;99901.69;5014992;28;854;-71
2023/07/16 12:23:05;;;;;;;;;;;;;;;39.09;24.24;99902.78;5014571;28;838;-70
2023/07/16 12:25:32;;;;;;;;;;;;;;;39.14;23.72;99903.84;5014919;28;1943;-72
2023/07/16 12:28:01;;;;;;;;;;;;;;;39.22;23.87;99904.50;5014568;28;831;-72
2023/07/16 12:30:28;;;;;;;;;;;;;;;39.87;23.89;99908.00;5014302;28;830;-71
2023/07/16 12:32:55;;;;;;;;;;;;;;;39.84;23.23;99912.06;5014505;28;893;-72
2023/07/16 12:35:22;;;;;;;;;;;;;;;39.26;23.88;99909.81;5014446;28;858;-73
2023/07/16 12:37:48;;;;;;;;;;;;;;;39.02;24.34;99912.31;5014552;28;838;-71
2023/07/16 12:40:16;;;;;;;;;;;;;;;38.66;24.93;99908.00;5014601;28;819;-72
2023/07/16 12:42:43;;;;;;;;;;;;;;;39.15;24.93;99908.25;5014168;28;882;-73
2023/07/16 12:45:10;;;;;;;;;;;;;;;39.65;23.82;99910.69;5014029;28;1881;-71
2023/07/16 12:47:38;;;;;;;;;;;;;;;39.37;24.43;99903.47;5014664;28;1087;-72
2023/07/16 12:50:05;;;;;;;;;;;;;;;39.19;24.73;99903.56;5014180;28;819;-72
2023/07/16 12:52:32;;;;;;;;;;;;;;;38.86;25.07;99908.09;5013947;28;815;-73
2023/07/16 12:54:58;;;;;;;;;;;;;;;39.06;25.02;99897.44;4996342;28;1315;-74
2023/07/16 12:57:25;;;;;;;;;;;;;;;39.42;24.81;99908.22;5014290;28;831;-73
2023/07/16 12:59:52;;;;;;;;;;;;;;;39.36;24.46;99896.16;5013797;28;894;-74
2023/07/16 13:02:19;;;;;;;;;;;;;;;39.24;24.96;99898.84;5014062;28;850;-73
2023/07/16 13:04:45;;;;;;;;;;;;;;;39.47;24.52;99900.63;5013877;28;1910;-70
2023/07/16 13:07:12;;;;;;;;;;;;;;;39.20;24.38;99896.41;5013842;28;865;-70
2023/07/16 13:09:39;;;;;;;;;;;;;;;38.83;25.00;99904.28;5013593;28;823;-73
2023/07/16 13:12:06;;;;;;;;;;;;;;;39.36;24.51;99905.56;5013695;28;961;-71
2023/07/16 13:14:33;;;;;;;;;;;;;;;39.31;23.70;99894.31;5013553;28;851;-72
2023/07/16 13:17:01;;;;;;;;;;;;;;;39.04;23.98;99891.50;5013839;28;815;-72
2023/07/16 13:19:27;;;;;;;;;;;;;;;38.72;24.07;99885.41;5013496;28;889;-71
2023/07/16 13:21:54;;;;;;;;;;;;;;;38.97;24.29;99890.25;5013386;28;871;-71
2023/07/16 13:24:21;;;;;;;;;;;;;;;38.88;24.48;99905.38;5013559;28;1882;-74
2023/07/16 13:26:47;;;;;;;;;;;;;;;38.57;24.38;99905.84;4995798;28;2079;-73
2023/07/16 13:29:14;;;;;;;;;;;;;;;38.77;25.09;99892.25;5013409;28;839;-73
2023/07/16 13:31:41;;;;;;;;;;;;;;;38.44;24.77;99897.53;5013686;28;870;-71
2023/07/16 13:34:08;;;;;;;;;;;;;;;38.55;24.88;99894.88;5013309;28;842;-69
2023/07/16 13:36:35;;;;;;;;;;;;;;;38.72;24.39;99894.06;5031178;28;814;-73
2023/07/16 13:39:04;;;;;;;;;;;;;;;38.94;24.54;99895.09;5032885;28;847;-70
2023/07/16 13:41:31;;;;;;;;;;;;;;;38.93;24.23;99901.47;5032831;28;814;-72
2023/07/16 13:43:57;;;;;;;;;;;;;;;39.25;24.48;99893.84;5032798;28;1886;-69